Sugar Grove, OH (43155)

5:08 AM EST on December 29, 2014 (GMT -0500)
KOHLANCA8 | Change Station
CLOSE
Current Station
Personal Weather Station
Location: Lancaster, OH
Elevation: 856 ft
Nearby Weather Stations

Elev 856 ft 39.72 °N, 82.57 °W | Updated 7 minutes ago

Partly Cloudy
Partly Cloudy
29.1 °F
Feels Like 29 °F
N
0.0
Wind Variable Wind from North
Gusts 0.0 mph

Today
High -- | Low -- °F
--% Chance of Precip.
Yesterday
High -- | Low -- °F
Precip. -- in
7:50 AM 5:14 PM
First Quarter, 57% visible
Pressure 30.22 in
Visibility 9.0 miles
Clouds Overcast 2900 ft
Windchill 29 °F
Dew Point 26 °F
Humidity 89%
Rainfall 0.00 in
Snow Depth Not available.
UV 0 out of 12
Pollen .10 out of 12
Air Quality Not available.
Flu Activity Not available.
METAR KLHQ 290953Z AUTO 34003KT 9SM OVC029 M01/M03 A3020 RMK AO2 SLP234 T10111033

More Conditions Fewer Conditions

Pressure 30.22 in
Visibility 9.0 miles
Clouds Overcast 2900 ft
Windchill 29 °F
Dew Point 26 °F
Humidity 89%
Rainfall 0.00 in
Snow Depth Not available.
UV 0 out of 12
Pollen .10 out of 12
Air Quality Not available.
Flu Activity Not available.
METAR KLHQ 290953Z AUTO 34003KT 9SM OVC029 M01/M03 A3020 RMK AO2 SLP234 T10111033

More Conditions Fewer Conditions

10-Day Weather Forecast

Almanac

Astronomy

Dec. 29, 2014 Rise Set
Actual Time
Civil Twilight
Nautical Twilight
Astronomical Twilight
Moon
Length of Visible Light
Length of Day
Tomorrow will be .
, % of the Moon is Illuminated

Today's Extremes

State Highs State Lows

Community

WunderPhotos

Upload Photos

1,781,563 photos uploaded!

WunderBlogs® & News

Nearby

Air Quality

  Air Quality AQ Index Pollutant
Not available.

Snow Depth

Station Depth Elevation

Earthquake Activity

City Distance Mag. Time & Date
Minimum magnitude displayed is 2.5.

Coastal Water Temperatures

Place Temperature

Nearby Weather Stations